sensor_id;sensor_type;location;lat;lon;timestamp;P1;durP1;ratioP1;P2;durP2;ratioP2
7477;SDS011;3780;42.424;25.636;2023-02-26T00:01:23;25.52;;;12.65;;
7477;SDS011;3780;42.424;25.636;2023-02-26T00:03:49;28.80;;;11.65;;
7477;SDS011;3780;42.424;25.636;2023-02-26T00:06:14;36.70;;;12.63;;
7477;SDS011;3780;42.424;25.636;2023-02-26T00:08:40;25.40;;;11.27;;
7477;SDS011;3780;42.424;25.636;2023-02-26T00:11:06;25.77;;;13.00;;
7477;SDS011;3780;42.424;25.636;2023-02-26T00:13:31;22.30;;;12.07;;
7477;SDS011;3780;42.424;25.636;2023-02-26T00:16:00;23.38;;;12.15;;
7477;SDS011;3780;42.424;25.636;2023-02-26T00:18:26;23.05;;;12.20;;
7477;SDS011;3780;42.424;25.636;2023-02-26T00:20:51;23.60;;;11.75;;
7477;SDS011;3780;42.424;25.636;2023-02-26T00:23:17;23.70;;;12.00;;
7477;SDS011;3780;42.424;25.636;2023-02-26T00:25:42;20.63;;;12.13;;
7477;SDS011;3780;42.424;25.636;2023-02-26T00:28:08;21.63;;;12.10;;
7477;SDS011;3780;42.424;25.636;2023-02-26T00:30:34;24.88;;;11.60;;
7477;SDS011;3780;42.424;25.636;2023-02-26T00:32:59;20.50;;;10.90;;
7477;SDS011;3780;42.424;25.636;2023-02-26T00:35:25;19.77;;;10.93;;
7477;SDS011;3780;42.424;25.636;2023-02-26T00:42:41;23.77;;;11.55;;
7477;SDS011;3780;42.424;25.636;2023-02-26T00:45:06;26.23;;;11.98;;
7477;SDS011;3780;42.424;25.636;2023-02-26T00:55:13;24.10;;;10.75;;
7477;SDS011;3780;42.424;25.636;2023-02-26T00:57:39;18.20;;;10.93;;
7477;SDS011;3780;42.424;25.636;2023-02-26T01:00:04;24.35;;;10.77;;
7477;SDS011;3780;42.424;25.636;2023-02-26T01:02:32;22.42;;;11.30;;
7477;SDS011;3780;42.424;25.636;2023-02-26T01:04:58;18.80;;;11.60;;
7477;SDS011;3780;42.424;25.636;2023-02-26T01:07:25;25.83;;;11.32;;
7477;SDS011;3780;42.424;25.636;2023-02-26T01:09:52;25.52;;;11.35;;
7477;SDS011;3780;42.424;25.636;2023-02-26T01:12:17;23.48;;;11.05;;
7477;SDS011;3780;42.424;25.636;2023-02-26T01:14:43;23.25;;;11.77;;
7477;SDS011;3780;42.424;25.636;2023-02-26T01:19:40;22.45;;;11.20;;
7477;SDS011;3780;42.424;25.636;2023-02-26T01:24:46;25.42;;;11.23;;
7477;SDS011;3780;42.424;25.636;2023-02-26T01:27:12;31.33;;;11.30;;
7477;SDS011;3780;42.424;25.636;2023-02-26T01:29:37;28.33;;;10.90;;
7477;SDS011;3780;42.424;25.636;2023-02-26T01:39:39;23.55;;;11.68;;
7477;SDS011;3780;42.424;25.636;2023-02-26T01:42:15;27.83;;;10.68;;
7477;SDS011;3780;42.424;25.636;2023-02-26T01:44:47;21.27;;;11.27;;
7477;SDS011;3780;42.424;25.636;2023-02-26T01:49:52;25.08;;;11.60;;
7477;SDS011;3780;42.424;25.636;2023-02-26T01:55:01;21.30;;;10.82;;
7477;SDS011;3780;42.424;25.636;2023-02-26T01:57:26;23.58;;;10.57;;
7477;SDS011;3780;42.424;25.636;2023-02-26T01:59:51;21.92;;;11.15;;
7477;SDS011;3780;42.424;25.636;2023-02-26T02:02:19;23.02;;;11.00;;
7477;SDS011;3780;42.424;25.636;2023-02-26T02:04:44;24.77;;;10.68;;
7477;SDS011;3780;42.424;25.636;2023-02-26T02:07:10;26.90;;;10.07;;
7477;SDS011;3780;42.424;25.636;2023-02-26T02:09:36;31.80;;;11.40;;
7477;SDS011;3780;42.424;25.636;2023-02-26T02:16:54;18.00;;;10.00;;
7477;SDS011;3780;42.424;25.636;2023-02-26T02:19:41;19.67;;;9.85;;
7477;SDS011;3780;42.424;25.636;2023-02-26T02:24:57;26.80;;;10.20;;
7477;SDS011;3780;42.424;25.636;2023-02-26T02:27:39;22.58;;;10.50;;
7477;SDS011;3780;42.424;25.636;2023-02-26T02:32:43;21.95;;;10.88;;
7477;SDS011;3780;42.424;25.636;2023-02-26T02:37:37;22.27;;;10.05;;
7477;SDS011;3780;42.424;25.636;2023-02-26T02:40:09;24.60;;;10.43;;
7477;SDS011;3780;42.424;25.636;2023-02-26T02:42:41;21.48;;;9.13;;
7477;SDS011;3780;42.424;25.636;2023-02-26T02:45:09;22.00;;;10.40;;
7477;SDS011;3780;42.424;25.636;2023-02-26T02:47:36;19.42;;;10.05;;
7477;SDS011;3780;42.424;25.636;2023-02-26T02:50:08;24.00;;;10.90;;
7477;SDS011;3780;42.424;25.636;2023-02-26T02:52:38;24.45;;;10.05;;
7477;SDS011;3780;42.424;25.636;2023-02-26T02:55:20;28.08;;;11.18;;
7477;SDS011;3780;42.424;25.636;2023-02-26T02:57:50;26.35;;;10.55;;
7477;SDS011;3780;42.424;25.636;2023-02-26T03:00:17;26.02;;;10.27;;
7477;SDS011;3780;42.424;25.636;2023-02-26T03:03:02;27.27;;;11.15;;
7477;SDS011;3780;42.424;25.636;2023-02-26T03:05:29;27.27;;;11.25;;
7477;SDS011;3780;42.424;25.636;2023-02-26T03:08:00;26.02;;;9.90;;
7477;SDS011;3780;42.424;25.636;2023-02-26T03:10:26;29.40;;;10.50;;
7477;SDS011;3780;42.424;25.636;2023-02-26T03:12:52;25.60;;;10.30;;
7477;SDS011;3780;42.424;25.636;2023-02-26T03:15:17;23.80;;;10.45;;
7477;SDS011;3780;42.424;25.636;2023-02-26T03:17:50;24.65;;;10.35;;
7477;SDS011;3780;42.424;25.636;2023-02-26T03:23:00;22.25;;;9.95;;
7477;SDS011;3780;42.424;25.636;2023-02-26T03:25:34;22.80;;;9.27;;
7477;SDS011;3780;42.424;25.636;2023-02-26T03:28:17;25.30;;;10.63;;
7477;SDS011;3780;42.424;25.636;2023-02-26T03:36:24;28.70;;;11.82;;
7477;SDS011;3780;42.424;25.636;2023-02-26T03:41:47;28.83;;;10.73;;
7477;SDS011;3780;42.424;25.636;2023-02-26T03:44:20;30.05;;;11.25;;
7477;SDS011;3780;42.424;25.636;2023-02-26T03:46:49;23.92;;;10.93;;
7477;SDS011;3780;42.424;25.636;2023-02-26T03:49:26;21.75;;;9.43;;
7477;SDS011;3780;42.424;25.636;2023-02-26T03:51:52;26.95;;;10.80;;
7477;SDS011;3780;42.424;25.636;2023-02-26T03:54:20;22.42;;;9.60;;
7477;SDS011;3780;42.424;25.636;2023-02-26T03:56:46;27.17;;;10.50;;
7477;SDS011;3780;42.424;25.636;2023-02-26T03:59:12;28.95;;;9.98;;
7477;SDS011;3780;42.424;25.636;2023-02-26T04:01:40;30.90;;;10.00;;
7477;SDS011;3780;42.424;25.636;2023-02-26T04:04:14;24.40;;;9.30;;
7477;SDS011;3780;42.424;25.636;2023-02-26T04:06:40;31.55;;;9.68;;
7477;SDS011;3780;42.424;25.636;2023-02-26T04:09:06;25.73;;;9.73;;
7477;SDS011;3780;42.424;25.636;2023-02-26T04:11:31;30.50;;;9.80;;
7477;SDS011;3780;42.424;25.636;2023-02-26T04:13:57;29.63;;;9.40;;
7477;SDS011;3780;42.424;25.636;2023-02-26T04:16:22;26.35;;;8.25;;
7477;SDS011;3780;42.424;25.636;2023-02-26T04:18:48;31.27;;;8.18;;
7477;SDS011;3780;42.424;25.636;2023-02-26T04:21:13;27.70;;;8.30;;
7477;SDS011;3780;42.424;25.636;2023-02-26T04:23:39;23.88;;;8.10;;
7477;SDS011;3780;42.424;25.636;2023-02-26T04:26:05;33.17;;;8.43;;
7477;SDS011;3780;42.424;25.636;2023-02-26T04:28:30;22.38;;;7.72;;
7477;SDS011;3780;42.424;25.636;2023-02-26T04:30:55;25.27;;;7.20;;
7477;SDS011;3780;42.424;25.636;2023-02-26T04:33:20;25.42;;;8.10;;
7477;SDS011;3780;42.424;25.636;2023-02-26T04:35:47;25.95;;;7.75;;
7477;SDS011;3780;42.424;25.636;2023-02-26T04:38:12;27.13;;;8.38;;
7477;SDS011;3780;42.424;25.636;2023-02-26T04:40:38;23.17;;;8.05;;
7477;SDS011;3780;42.424;25.636;2023-02-26T04:43:03;32.78;;;8.00;;
7477;SDS011;3780;42.424;25.636;2023-02-26T04:45:28;24.70;;;7.65;;
7477;SDS011;3780;42.424;25.636;2023-02-26T04:47:54;26.75;;;7.43;;
7477;SDS011;3780;42.424;25.636;2023-02-26T04:50:19;23.85;;;7.72;;
7477;SDS011;3780;42.424;25.636;2023-02-26T04:52:44;24.63;;;7.60;;
7477;SDS011;3780;42.424;25.636;2023-02-26T04:55:10;22.48;;;7.10;;
7477;SDS011;3780;42.424;25.636;2023-02-26T04:57:35;21.98;;;6.88;;
7477;SDS011;3780;42.424;25.636;2023-02-26T05:00:01;23.30;;;7.40;;
7477;SDS011;3780;42.424;25.636;2023-02-26T05:02:30;23.35;;;7.22;;
7477;SDS011;3780;42.424;25.636;2023-02-26T05:04:55;25.10;;;7.82;;
7477;SDS011;3780;42.424;25.636;2023-02-26T05:07:20;25.13;;;7.20;;
7477;SDS011;3780;42.424;25.636;2023-02-26T05:09:46;23.88;;;7.88;;
7477;SDS011;3780;42.424;25.636;2023-02-26T05:12:11;22.02;;;8.52;;
7477;SDS011;3780;42.424;25.636;2023-02-26T05:14:36;23.13;;;7.65;;
7477;SDS011;3780;42.424;25.636;2023-02-26T05:17:02;21.98;;;8.23;;
7477;SDS011;3780;42.424;25.636;2023-02-26T05:19:27;19.73;;;6.72;;
7477;SDS011;3780;42.424;25.636;2023-02-26T05:21:52;26.63;;;7.20;;
7477;SDS011;3780;42.424;25.636;2023-02-26T05:24:18;28.30;;;8.73;;
7477;SDS011;3780;42.424;25.636;2023-02-26T05:26:43;29.35;;;9.35;;
7477;SDS011;3780;42.424;25.636;2023-02-26T05:29:08;26.15;;;7.57;;
7477;SDS011;3780;42.424;25.636;2023-02-26T05:31:33;27.13;;;7.28;;
7477;SDS011;3780;42.424;25.636;2023-02-26T05:33:59;25.25;;;7.00;;
7477;SDS011;3780;42.424;25.636;2023-02-26T05:36:24;20.48;;;7.75;;
7477;SDS011;3780;42.424;25.636;2023-02-26T05:38:49;27.52;;;7.18;;
7477;SDS011;3780;42.424;25.636;2023-02-26T05:41:15;18.80;;;7.38;;
7477;SDS011;3780;42.424;25.636;2023-02-26T05:43:40;21.67;;;7.47;;
7477;SDS011;3780;42.424;25.636;2023-02-26T05:46:06;19.65;;;7.30;;
7477;SDS011;3780;42.424;25.636;2023-02-26T05:48:31;23.90;;;7.68;;
7477;SDS011;3780;42.424;25.636;2023-02-26T05:50:56;26.70;;;7.88;;
7477;SDS011;3780;42.424;25.636;2023-02-26T05:53:21;25.85;;;8.02;;
7477;SDS011;3780;42.424;25.636;2023-02-26T05:55:47;22.02;;;7.28;;
7477;SDS011;3780;42.424;25.636;2023-02-26T05:58:12;24.40;;;7.78;;
7477;SDS011;3780;42.424;25.636;2023-02-26T06:00:38;34.42;;;8.35;;
7477;SDS011;3780;42.424;25.636;2023-02-26T06:03:03;20.85;;;7.75;;
7477;SDS011;3780;42.424;25.636;2023-02-26T06:05:29;24.30;;;8.18;;
7477;SDS011;3780;42.424;25.636;2023-02-26T06:07:54;20.73;;;7.10;;
7477;SDS011;3780;42.424;25.636;2023-02-26T06:10:19;25.70;;;7.72;;
7477;SDS011;3780;42.424;25.636;2023-02-26T06:12:45;27.88;;;7.82;;
7477;SDS011;3780;42.424;25.636;2023-02-26T06:15:10;24.05;;;8.02;;
7477;SDS011;3780;42.424;25.636;2023-02-26T06:17:36;25.38;;;7.75;;
7477;SDS011;3780;42.424;25.636;2023-02-26T06:20:02;49.08;;;23.95;;
7477;SDS011;3780;42.424;25.636;2023-02-26T06:22:27;33.88;;;14.68;;
7477;SDS011;3780;42.424;25.636;2023-02-26T06:24:53;20.80;;;7.90;;
7477;SDS011;3780;42.424;25.636;2023-02-26T06:27:19;45.88;;;22.33;;
7477;SDS011;3780;42.424;25.636;2023-02-26T06:29:45;25.40;;;10.65;;
7477;SDS011;3780;42.424;25.636;2023-02-26T06:32:10;24.38;;;9.52;;
7477;SDS011;3780;42.424;25.636;2023-02-26T06:34:36;23.98;;;8.32;;
7477;SDS011;3780;42.424;25.636;2023-02-26T06:37:01;21.92;;;6.32;;
7477;SDS011;3780;42.424;25.636;2023-02-26T06:39:26;29.58;;;7.85;;
7477;SDS011;3780;42.424;25.636;2023-02-26T06:41:51;25.15;;;7.07;;
7477;SDS011;3780;42.424;25.636;2023-02-26T06:44:17;31.50;;;8.82;;
7477;SDS011;3780;42.424;25.636;2023-02-26T06:46:42;28.35;;;8.07;;
7477;SDS011;3780;42.424;25.636;2023-02-26T06:49:08;26.08;;;7.82;;
7477;SDS011;3780;42.424;25.636;2023-02-26T06:51:33;21.40;;;7.70;;
7477;SDS011;3780;42.424;25.636;2023-02-26T06:53:58;34.03;;;7.22;;
7477;SDS011;3780;42.424;25.636;2023-02-26T06:56:24;28.70;;;7.07;;
7477;SDS011;3780;42.424;25.636;2023-02-26T06:58:49;29.10;;;7.38;;
7477;SDS011;3780;42.424;25.636;2023-02-26T07:01:15;21.67;;;6.97;;
7477;SDS011;3780;42.424;25.636;2023-02-26T07:03:40;25.02;;;7.28;;
7477;SDS011;3780;42.424;25.636;2023-02-26T07:06:06;24.67;;;6.85;;
7477;SDS011;3780;42.424;25.636;2023-02-26T07:08:34;31.23;;;7.63;;
7477;SDS011;3780;42.424;25.636;2023-02-26T07:11:00;27.35;;;7.45;;
7477;SDS011;3780;42.424;25.636;2023-02-26T07:13:25;24.13;;;6.38;;
7477;SDS011;3780;42.424;25.636;2023-02-26T07:15:50;23.35;;;6.63;;
7477;SDS011;3780;42.424;25.636;2023-02-26T07:18:16;20.10;;;6.68;;
7477;SDS011;3780;42.424;25.636;2023-02-26T07:20:41;36.78;;;7.25;;
7477;SDS011;3780;42.424;25.636;2023-02-26T07:23:07;22.13;;;5.97;;
7477;SDS011;3780;42.424;25.636;2023-02-26T07:25:32;30.83;;;7.07;;
7477;SDS011;3780;42.424;25.636;2023-02-26T07:27:57;21.05;;;5.90;;
7477;SDS011;3780;42.424;25.636;2023-02-26T07:30:24;20.95;;;6.22;;
7477;SDS011;3780;42.424;25.636;2023-02-26T07:32:49;33.95;;;7.03;;
7477;SDS011;3780;42.424;25.636;2023-02-26T07:35:14;24.38;;;6.75;;
7477;SDS011;3780;42.424;25.636;2023-02-26T07:37:40;30.70;;;7.22;;
7477;SDS011;3780;42.424;25.636;2023-02-26T07:40:05;24.25;;;6.82;;
7477;SDS011;3780;42.424;25.636;2023-02-26T07:42:31;21.70;;;7.55;;
7477;SDS011;3780;42.424;25.636;2023-02-26T07:44:56;24.10;;;6.53;;
7477;SDS011;3780;42.424;25.636;2023-02-26T07:47:21;24.63;;;6.85;;
7477;SDS011;3780;42.424;25.636;2023-02-26T07:49:47;30.58;;;6.72;;
7477;SDS011;3780;42.424;25.636;2023-02-26T07:52:12;23.95;;;5.65;;
7477;SDS011;3780;42.424;25.636;2023-02-26T07:54:37;25.20;;;5.95;;
7477;SDS011;3780;42.424;25.636;2023-02-26T07:57:03;20.67;;;5.22;;
7477;SDS011;3780;42.424;25.636;2023-02-26T07:59:28;20.15;;;5.32;;
7477;SDS011;3780;42.424;25.636;2023-02-26T08:01:54;19.05;;;4.60;;
7477;SDS011;3780;42.424;25.636;2023-02-26T08:04:20;19.40;;;4.95;;
7477;SDS011;3780;42.424;25.636;2023-02-26T08:06:45;22.50;;;5.25;;
7477;SDS011;3780;42.424;25.636;2023-02-26T08:09:10;20.35;;;5.00;;
7477;SDS011;3780;42.424;25.636;2023-02-26T08:11:35;15.70;;;4.60;;
7477;SDS011;3780;42.424;25.636;2023-02-26T08:14:04;25.20;;;5.00;;
7477;SDS011;3780;42.424;25.636;2023-02-26T08:16:30;19.00;;;4.70;;
7477;SDS011;3780;42.424;25.636;2023-02-26T08:18:55;16.90;;;4.38;;
7477;SDS011;3780;42.424;25.636;2023-02-26T08:21:21;18.83;;;4.00;;
7477;SDS011;3780;42.424;25.636;2023-02-26T08:23:46;16.30;;;4.78;;
7477;SDS011;3780;42.424;25.636;2023-02-26T08:26:12;19.63;;;4.43;;
7477;SDS011;3780;42.424;25.636;2023-02-26T08:28:38;19.67;;;6.25;;
7477;SDS011;3780;42.424;25.636;2023-02-26T08:31:03;19.00;;;4.40;;
7477;SDS011;3780;42.424;25.636;2023-02-26T08:33:29;13.88;;;4.40;;
7477;SDS011;3780;42.424;25.636;2023-02-26T08:35:54;29.60;;;4.97;;
7477;SDS011;3780;42.424;25.636;2023-02-26T08:38:23;27.40;;;6.20;;
7477;SDS011;3780;42.424;25.636;2023-02-26T08:40:48;24.42;;;5.60;;
7477;SDS011;3780;42.424;25.636;2023-02-26T08:43:14;25.77;;;5.28;;
7477;SDS011;3780;42.424;25.636;2023-02-26T08:45:39;15.32;;;3.15;;
7477;SDS011;3780;42.424;25.636;2023-02-26T08:48:04;17.92;;;4.32;;
7477;SDS011;3780;42.424;25.636;2023-02-26T08:50:30;20.58;;;5.55;;
7477;SDS011;3780;42.424;25.636;2023-02-26T08:52:55;21.67;;;5.00;;
7477;SDS011;3780;42.424;25.636;2023-02-26T08:55:21;13.60;;;4.15;;
7477;SDS011;3780;42.424;25.636;2023-02-26T08:57:47;27.98;;;4.28;;
7477;SDS011;3780;42.424;25.636;2023-02-26T09:00:12;17.83;;;4.65;;
7477;SDS011;3780;42.424;25.636;2023-02-26T09:02:40;14.32;;;3.90;;
7477;SDS011;3780;42.424;25.636;2023-02-26T09:05:05;25.42;;;4.78;;
7477;SDS011;3780;42.424;25.636;2023-02-26T09:07:32;20.65;;;4.20;;
7477;SDS011;3780;42.424;25.636;2023-02-26T09:09:57;18.70;;;4.53;;
7477;SDS011;3780;42.424;25.636;2023-02-26T09:12:23;21.15;;;3.97;;
7477;SDS011;3780;42.424;25.636;2023-02-26T09:14:48;16.65;;;4.07;;
7477;SDS011;3780;42.424;25.636;2023-02-26T09:17:14;12.82;;;4.28;;
7477;SDS011;3780;42.424;25.636;2023-02-26T09:19:39;22.90;;;4.55;;
7477;SDS011;3780;42.424;25.636;2023-02-26T09:22:05;13.40;;;3.80;;
7477;SDS011;3780;42.424;25.636;2023-02-26T09:24:30;21.30;;;4.25;;
7477;SDS011;3780;42.424;25.636;2023-02-26T09:26:55;20.48;;;4.88;;
7477;SDS011;3780;42.424;25.636;2023-02-26T09:29:21;16.33;;;4.00;;
7477;SDS011;3780;42.424;25.636;2023-02-26T09:31:46;18.90;;;4.10;;
7477;SDS011;3780;42.424;25.636;2023-02-26T09:34:11;20.50;;;4.13;;
7477;SDS011;3780;42.424;25.636;2023-02-26T09:36:37;20.25;;;5.00;;
7477;SDS011;3780;42.424;25.636;2023-02-26T09:39:03;22.88;;;4.25;;
7477;SDS011;3780;42.424;25.636;2023-02-26T09:41:33;16.30;;;4.40;;
7477;SDS011;3780;42.424;25.636;2023-02-26T09:49:11;15.23;;;4.03;;
7477;SDS011;3780;42.424;25.636;2023-02-26T09:51:39;22.48;;;4.20;;
7477;SDS011;3780;42.424;25.636;2023-02-26T09:54:11;16.38;;;4.40;;
7477;SDS011;3780;42.424;25.636;2023-02-26T09:56:38;23.92;;;4.25;;
7477;SDS011;3780;42.424;25.636;2023-02-26T09:59:04;18.13;;;3.92;;
7477;SDS011;3780;42.424;25.636;2023-02-26T10:01:33;14.35;;;3.42;;
7477;SDS011;3780;42.424;25.636;2023-02-26T10:14:07;13.30;;;3.97;;
7477;SDS011;3780;42.424;25.636;2023-02-26T10:16:36;22.30;;;4.95;;
7477;SDS011;3780;42.424;25.636;2023-02-26T10:19:05;14.85;;;3.58;;
7477;SDS011;3780;42.424;25.636;2023-02-26T10:21:34;19.23;;;5.63;;
7477;SDS011;3780;42.424;25.636;2023-02-26T10:24:45;21.60;;;4.03;;
7477;SDS011;3780;42.424;25.636;2023-02-26T10:26:54;13.55;;;3.45;;
7477;SDS011;3780;42.424;25.636;2023-02-26T10:34:56;21.88;;;4.10;;
7477;SDS011;3780;42.424;25.636;2023-02-26T10:39:44;27.70;;;3.65;;
7477;SDS011;3780;42.424;25.636;2023-02-26T10:42:12;17.75;;;3.58;;
7477;SDS011;3780;42.424;25.636;2023-02-26T10:47:36;16.60;;;3.42;;
7477;SDS011;3780;42.424;25.636;2023-02-26T10:50:05;18.75;;;2.95;;
7477;SDS011;3780;42.424;25.636;2023-02-26T10:52:44;19.75;;;3.90;;
7477;SDS011;3780;42.424;25.636;2023-02-26T11:00:32;16.38;;;4.07;;
7477;SDS011;3780;42.424;25.636;2023-02-26T11:02:59;16.83;;;4.40;;
7477;SDS011;3780;42.424;25.636;2023-02-26T11:05:26;13.48;;;4.15;;
7477;SDS011;3780;42.424;25.636;2023-02-26T11:07:56;13.77;;;4.10;;
7477;SDS011;3780;42.424;25.636;2023-02-26T11:10:24;16.65;;;3.45;;
7477;SDS011;3780;42.424;25.636;2023-02-26T11:12:50;13.05;;;3.28;;
7477;SDS011;3780;42.424;25.636;2023-02-26T11:15:16;17.75;;;3.90;;
7477;SDS011;3780;42.424;25.636;2023-02-26T11:17:43;20.23;;;4.43;;
7477;SDS011;3780;42.424;25.636;2023-02-26T11:20:23;21.30;;;4.65;;
7477;SDS011;3780;42.424;25.636;2023-02-26T11:22:51;30.13;;;7.05;;
7477;SDS011;3780;42.424;25.636;2023-02-26T11:25:18;20.27;;;5.95;;
7477;SDS011;3780;42.424;25.636;2023-02-26T11:27:44;20.42;;;4.22;;
7477;SDS011;3780;42.424;25.636;2023-02-26T11:30:16;13.85;;;3.70;;
7477;SDS011;3780;42.424;25.636;2023-02-26T11:32:42;14.75;;;3.15;;
7477;SDS011;3780;42.424;25.636;2023-02-26T11:35:12;17.83;;;3.97;;
7477;SDS011;3780;42.424;25.636;2023-02-26T11:37:39;22.75;;;3.00;;
7477;SDS011;3780;42.424;25.636;2023-02-26T11:40:13;22.23;;;3.45;;
7477;SDS011;3780;42.424;25.636;2023-02-26T11:42:43;16.55;;;3.45;;
7477;SDS011;3780;42.424;25.636;2023-02-26T11:45:12;16.58;;;3.25;;
7477;SDS011;3780;42.424;25.636;2023-02-26T11:47:38;19.17;;;3.38;;
7477;SDS011;3780;42.424;25.636;2023-02-26T11:50:04;19.95;;;3.55;;
7477;SDS011;3780;42.424;25.636;2023-02-26T11:52:35;21.52;;;3.92;;
7477;SDS011;3780;42.424;25.636;2023-02-26T11:55:05;10.18;;;3.17;;
7477;SDS011;3780;42.424;25.636;2023-02-26T11:57:41;28.75;;;5.18;;
7477;SDS011;3780;42.424;25.636;2023-02-26T12:00:16;22.70;;;4.43;;
7477;SDS011;3780;42.424;25.636;2023-02-26T12:02:42;15.25;;;3.70;;
7477;SDS011;3780;42.424;25.636;2023-02-26T12:05:09;26.65;;;4.82;;
7477;SDS011;3780;42.424;25.636;2023-02-26T12:07:36;22.17;;;3.92;;
7477;SDS011;3780;42.424;25.636;2023-02-26T12:10:04;28.85;;;4.18;;
7477;SDS011;3780;42.424;25.636;2023-02-26T12:12:49;23.63;;;3.90;;
7477;SDS011;3780;42.424;25.636;2023-02-26T12:15:27;20.17;;;3.20;;
7477;SDS011;3780;42.424;25.636;2023-02-26T12:20:35;19.55;;;3.50;;
7477;SDS011;3780;42.424;25.636;2023-02-26T12:33:27;15.32;;;3.25;;
7477;SDS011;3780;42.424;25.636;2023-02-26T12:54:16;16.83;;;3.10;;
7477;SDS011;3780;42.424;25.636;2023-02-26T12:59:29;18.02;;;3.65;;
7477;SDS011;3780;42.424;25.636;2023-02-26T13:04:41;15.32;;;4.28;;
7477;SDS011;3780;42.424;25.636;2023-02-26T13:07:20;25.08;;;3.75;;
7477;SDS011;3780;42.424;25.636;2023-02-26T13:09:52;17.95;;;3.85;;
7477;SDS011;3780;42.424;25.636;2023-02-26T13:17:37;24.15;;;4.38;;
7477;SDS011;3780;42.424;25.636;2023-02-26T13:22:31;19.60;;;4.70;;
7477;SDS011;3780;42.424;25.636;2023-02-26T13:25:20;22.33;;;4.07;;
7477;SDS011;3780;42.424;25.636;2023-02-26T13:27:43;23.95;;;4.30;;
7477;SDS011;3780;42.424;25.636;2023-02-26T13:30:30;20.70;;;4.72;;
7477;SDS011;3780;42.424;25.636;2023-02-26T13:32:57;22.63;;;4.10;;
7477;SDS011;3780;42.424;25.636;2023-02-26T13:35:27;23.27;;;4.32;;
7477;SDS011;3780;42.424;25.636;2023-02-26T13:37:56;21.38;;;4.50;;
7477;SDS011;3780;42.424;25.636;2023-02-26T13:43:13;22.25;;;3.95;;
7477;SDS011;3780;42.424;25.636;2023-02-26T13:55:54;21.23;;;3.78;;
7477;SDS011;3780;42.424;25.636;2023-02-26T14:01:13;13.55;;;3.65;;
7477;SDS011;3780;42.424;25.636;2023-02-26T14:03:41;14.63;;;3.77;;
7477;SDS011;3780;42.424;25.636;2023-02-26T14:08:53;19.35;;;3.15;;
7477;SDS011;3780;42.424;25.636;2023-02-26T14:16:33;10.15;;;2.83;;
7477;SDS011;3780;42.424;25.636;2023-02-26T14:21:37;15.65;;;3.90;;
7477;SDS011;3780;42.424;25.636;2023-02-26T14:26:34;19.30;;;3.55;;
7477;SDS011;3780;42.424;25.636;2023-02-26T14:31:46;20.92;;;3.83;;
7477;SDS011;3780;42.424;25.636;2023-02-26T14:34:15;18.17;;;3.58;;
7477;SDS011;3780;42.424;25.636;2023-02-26T14:36:45;19.15;;;3.33;;
7477;SDS011;3780;42.424;25.636;2023-02-26T14:39:16;14.88;;;4.28;;
7477;SDS011;3780;42.424;25.636;2023-02-26T14:41:45;14.55;;;3.83;;
7477;SDS011;3780;42.424;25.636;2023-02-26T14:46:36;16.38;;;4.15;;
7477;SDS011;3780;42.424;25.636;2023-02-26T14:49:02;17.42;;;3.35;;
7477;SDS011;3780;42.424;25.636;2023-02-26T15:01:23;19.38;;;4.15;;
7477;SDS011;3780;42.424;25.636;2023-02-26T15:04:03;15.98;;;3.08;;
7477;SDS011;3780;42.424;25.636;2023-02-26T15:06:39;26.10;;;4.38;;
7477;SDS011;3780;42.424;25.636;2023-02-26T15:16:45;16.25;;;4.40;;
7477;SDS011;3780;42.424;25.636;2023-02-26T15:19:17;19.35;;;4.80;;
7477;SDS011;3780;42.424;25.636;2023-02-26T15:24:11;21.23;;;3.80;;
7477;SDS011;3780;42.424;25.636;2023-02-26T15:26:43;14.82;;;3.33;;
7477;SDS011;3780;42.424;25.636;2023-02-26T15:29:09;26.13;;;3.83;;
7477;SDS011;3780;42.424;25.636;2023-02-26T15:31:38;23.88;;;3.92;;
7477;SDS011;3780;42.424;25.636;2023-02-26T15:34:05;36.42;;;4.85;;
7477;SDS011;3780;42.424;25.636;2023-02-26T15:36:30;27.10;;;5.65;;
7477;SDS011;3780;42.424;25.636;2023-02-26T15:38:57;26.05;;;4.28;;
7477;SDS011;3780;42.424;25.636;2023-02-26T15:41:24;28.75;;;4.28;;
7477;SDS011;3780;42.424;25.636;2023-02-26T15:43:50;34.67;;;4.72;;
7477;SDS011;3780;42.424;25.636;2023-02-26T15:46:16;26.10;;;5.00;;
7477;SDS011;3780;42.424;25.636;2023-02-26T15:48:43;14.07;;;4.05;;
7477;SDS011;3780;42.424;25.636;2023-02-26T15:51:09;18.42;;;4.65;;
7477;SDS011;3780;42.424;25.636;2023-02-26T15:53:36;32.03;;;5.10;;
7477;SDS011;3780;42.424;25.636;2023-02-26T15:56:04;29.13;;;5.32;;
7477;SDS011;3780;42.424;25.636;2023-02-26T15:58:41;28.98;;;4.63;;
7477;SDS011;3780;42.424;25.636;2023-02-26T16:01:16;16.63;;;4.53;;
7477;SDS011;3780;42.424;25.636;2023-02-26T16:06:10;21.67;;;4.60;;
7477;SDS011;3780;42.424;25.636;2023-02-26T16:08:36;19.52;;;4.38;;
7477;SDS011;3780;42.424;25.636;2023-02-26T16:11:03;13.57;;;3.20;;
7477;SDS011;3780;42.424;25.636;2023-02-26T16:13:34;20.00;;;4.82;;
7477;SDS011;3780;42.424;25.636;2023-02-26T16:16:03;22.70;;;4.60;;
7477;SDS011;3780;42.424;25.636;2023-02-26T16:18:29;24.67;;;4.90;;
7477;SDS011;3780;42.424;25.636;2023-02-26T16:20:55;24.48;;;4.47;;
7477;SDS011;3780;42.424;25.636;2023-02-26T16:26:04;30.35;;;5.72;;
7477;SDS011;3780;42.424;25.636;2023-02-26T16:28:31;28.77;;;5.43;;
7477;SDS011;3780;42.424;25.636;2023-02-26T16:30:58;17.92;;;4.25;;
7477;SDS011;3780;42.424;25.636;2023-02-26T16:33:24;18.85;;;3.50;;
7477;SDS011;3780;42.424;25.636;2023-02-26T16:36:24;21.88;;;4.95;;
7477;SDS011;3780;42.424;25.636;2023-02-26T16:38:45;19.88;;;3.88;;
7477;SDS011;3780;42.424;25.636;2023-02-26T16:41:12;20.42;;;5.35;;
7477;SDS011;3780;42.424;25.636;2023-02-26T16:46:13;21.63;;;4.82;;
7477;SDS011;3780;42.424;25.636;2023-02-26T16:48:46;17.33;;;4.00;;
7477;SDS011;3780;42.424;25.636;2023-02-26T16:51:12;17.33;;;4.03;;
7477;SDS011;3780;42.424;25.636;2023-02-26T16:53:51;15.77;;;4.40;;
7477;SDS011;3780;42.424;25.636;2023-02-26T16:56:17;18.25;;;4.68;;
7477;SDS011;3780;42.424;25.636;2023-02-26T16:58:44;25.40;;;5.85;;
7477;SDS011;3780;42.424;25.636;2023-02-26T17:01:12;18.77;;;5.43;;
7477;SDS011;3780;42.424;25.636;2023-02-26T17:03:45;14.45;;;4.88;;
7477;SDS011;3780;42.424;25.636;2023-02-26T17:06:14;19.58;;;5.63;;
7477;SDS011;3780;42.424;25.636;2023-02-26T17:08:46;21.02;;;4.68;;
7477;SDS011;3780;42.424;25.636;2023-02-26T17:11:33;28.75;;;6.10;;
7477;SDS011;3780;42.424;25.636;2023-02-26T17:16:32;22.88;;;5.18;;
7477;SDS011;3780;42.424;25.636;2023-02-26T17:18:57;20.92;;;5.43;;
7477;SDS011;3780;42.424;25.636;2023-02-26T17:21:22;23.08;;;5.05;;
7477;SDS011;3780;42.424;25.636;2023-02-26T17:23:48;16.50;;;4.70;;
7477;SDS011;3780;42.424;25.636;2023-02-26T17:26:13;19.38;;;5.28;;
7477;SDS011;3780;42.424;25.636;2023-02-26T17:28:39;16.80;;;4.63;;
7477;SDS011;3780;42.424;25.636;2023-02-26T17:31:06;22.15;;;5.90;;
7477;SDS011;3780;42.424;25.636;2023-02-26T17:33:31;21.05;;;4.43;;
7477;SDS011;3780;42.424;25.636;2023-02-26T17:36:00;27.30;;;5.53;;
7477;SDS011;3780;42.424;25.636;2023-02-26T17:38:27;24.27;;;4.85;;
7477;SDS011;3780;42.424;25.636;2023-02-26T17:40:52;21.30;;;5.00;;
7477;SDS011;3780;42.424;25.636;2023-02-26T17:43:20;15.98;;;4.95;;
7477;SDS011;3780;42.424;25.636;2023-02-26T17:45:45;22.48;;;4.30;;
7477;SDS011;3780;42.424;25.636;2023-02-26T17:48:11;21.30;;;4.72;;
7477;SDS011;3780;42.424;25.636;2023-02-26T17:53:12;15.02;;;4.78;;
7477;SDS011;3780;42.424;25.636;2023-02-26T17:55:38;24.30;;;5.93;;
7477;SDS011;3780;42.424;25.636;2023-02-26T17:58:05;27.23;;;6.38;;
7477;SDS011;3780;42.424;25.636;2023-02-26T18:00:30;28.90;;;6.38;;
7477;SDS011;3780;42.424;25.636;2023-02-26T18:02:57;23.30;;;4.65;;
7477;SDS011;3780;42.424;25.636;2023-02-26T18:05:23;21.75;;;5.07;;